LDX41H LFAT-LOWS
Flight info
| Callsign | LDX41H |
|---|---|
| Flight time | N/A |
| Altitude | 45000 |
| Route | BNE DCT RUBUT DCT KOMOB M150 PITES DCT VEKIR DCT TRAUN TRAUN2R |
| Aircraft | C700/M-SBDGHM1RWXY/LB2 |
Departure
| Time | N/A |
|---|---|
| Airport | Le Touquet-Côte d'Opale Airport (LFAT) |
Arrival
| Time | 2026-04-29 16:39 |
|---|---|
| Airport | Salzburg Airport (LOWS) |
| Time | Latitude | Longitude | Altitude | Speed | Heading |
|---|---|---|---|---|---|
| 2026-04-29 16:16 | 48.69350 | 10.02140 | 37213 ft | 505 kts | 110° |
| 2026-04-29 16:16 | 48.68142 | 10.06632 | 37221 ft | 507 kts | 110° |
| 2026-04-29 16:17 | 48.65523 | 10.16464 | 37235 ft | 505 kts | 110° |
| 2026-04-29 16:17 | 48.62887 | 10.26347 | 37241 ft | 506 kts | 110° |
| 2026-04-29 16:18 | 48.60229 | 10.36225 | 37237 ft | 508 kts | 110° |
| 2026-04-29 16:18 | 48.57558 | 10.46154 | 37238 ft | 510 kts | 111° |
| 2026-04-29 16:19 | 48.54890 | 10.55992 | 37228 ft | 508 kts | 111° |
| 2026-04-29 16:19 | 48.53554 | 10.60918 | 36755 ft | 499 kts | 111° |
| 2026-04-29 16:19 | 48.52261 | 10.65666 | 36116 ft | 484 kts | 111° |
| 2026-04-29 16:19 | 48.50977 | 10.70377 | 35480 ft | 488 kts | 111° |
| 2026-04-29 16:20 | 48.49683 | 10.75114 | 34837 ft | 488 kts | 111° |
| 2026-04-29 16:20 | 48.48388 | 10.79843 | 34195 ft | 487 kts | 111° |
| 2026-04-29 16:20 | 48.47094 | 10.84560 | 33518 ft | 485 kts | 111° |
| 2026-04-29 16:20 | 48.45801 | 10.89259 | 32875 ft | 487 kts | 111° |
| 2026-04-29 16:21 | 48.44501 | 10.93983 | 32234 ft | 488 kts | 111° |
| 2026-04-29 16:21 | 48.43199 | 10.98705 | 31586 ft | 487 kts | 111° |
| 2026-04-29 16:21 | 48.41895 | 11.03414 | 30949 ft | 487 kts | 111° |
| 2026-04-29 16:21 | 48.40593 | 11.08112 | 30305 ft | 486 kts | 111° |
| 2026-04-29 16:22 | 48.39299 | 11.12775 | 29616 ft | 481 kts | 111° |
| 2026-04-29 16:22 | 48.38013 | 11.17398 | 28987 ft | 476 kts | 111° |
| 2026-04-29 16:22 | 48.36734 | 11.21986 | 28371 ft | 474 kts | 111° |
| 2026-04-29 16:22 | 48.35466 | 11.26528 | 27742 ft | 469 kts | 111° |
| 2026-04-29 16:23 | 48.34222 | 11.30976 | 27130 ft | 463 kts | 111° |
| 2026-04-29 16:23 | 48.32977 | 11.35417 | 26517 ft | 459 kts | 111° |
| 2026-04-29 16:23 | 48.31738 | 11.39826 | 25922 ft | 456 kts | 112° |
| 2026-04-29 16:23 | 48.30511 | 11.44189 | 25332 ft | 453 kts | 112° |
| 2026-04-29 16:24 | 48.29287 | 11.48529 | 24734 ft | 449 kts | 112° |
| 2026-04-29 16:24 | 48.28071 | 11.52834 | 24153 ft | 445 kts | 112° |
| 2026-04-29 16:24 | 48.26867 | 11.57094 | 23532 ft | 440 kts | 112° |
| 2026-04-29 16:24 | 48.25677 | 11.61294 | 22942 ft | 434 kts | 112° |
| 2026-04-29 16:25 | 48.24498 | 11.65447 | 22371 ft | 432 kts | 112° |
| 2026-04-29 16:25 | 48.23322 | 11.69582 | 21801 ft | 428 kts | 112° |
| 2026-04-29 16:25 | 48.22159 | 11.73668 | 21244 ft | 424 kts | 112° |
| 2026-04-29 16:25 | 48.21004 | 11.77715 | 20689 ft | 420 kts | 112° |
| 2026-04-29 16:26 | 48.19860 | 11.81716 | 20137 ft | 416 kts | 112° |
| 2026-04-29 16:26 | 48.18722 | 11.85691 | 19588 ft | 413 kts | 112° |
| 2026-04-29 16:26 | 48.17608 | 11.89583 | 19054 ft | 409 kts | 112° |
| 2026-04-29 16:26 | 48.16487 | 11.93487 | 18514 ft | 405 kts | 112° |
| 2026-04-29 16:27 | 48.15372 | 11.97343 | 17905 ft | 401 kts | 112° |
| 2026-04-29 16:27 | 48.14273 | 12.01162 | 17214 ft | 395 kts | 112° |
| 2026-04-29 16:27 | 48.13193 | 12.04922 | 16693 ft | 393 kts | 112° |
| 2026-04-29 16:27 | 48.12109 | 12.08670 | 16185 ft | 391 kts | 112° |
| 2026-04-29 16:28 | 48.11030 | 12.12388 | 15664 ft | 387 kts | 112° |
| 2026-04-29 16:28 | 48.09965 | 12.16059 | 15157 ft | 383 kts | 112° |
| 2026-04-29 16:28 | 48.08910 | 12.19702 | 14654 ft | 380 kts | 112° |
| 2026-04-29 16:28 | 48.07858 | 12.23319 | 14159 ft | 377 kts | 112° |
| 2026-04-29 16:29 | 48.06817 | 12.26924 | 13624 ft | 375 kts | 111° |
| 2026-04-29 16:29 | 48.06169 | 12.30595 | 13070 ft | 353 kts | 97° |
| 2026-04-29 16:29 | 48.05967 | 12.34099 | 12541 ft | 326 kts | 91° |
| 2026-04-29 16:29 | 48.05831 | 12.37362 | 12113 ft | 304 kts | 93° |
| 2026-04-29 16:30 | 48.05549 | 12.40433 | 11724 ft | 302 kts | 98° |
| 2026-04-29 16:30 | 48.05156 | 12.43521 | 11328 ft | 302 kts | 99° |
| 2026-04-29 16:30 | 48.04800 | 12.46620 | 10929 ft | 302 kts | 97° |
| 2026-04-29 16:30 | 48.04498 | 12.49717 | 10536 ft | 300 kts | 97° |
| 2026-04-29 16:31 | 48.04189 | 12.52788 | 10137 ft | 299 kts | 97° |
| 2026-04-29 16:31 | 48.03889 | 12.55554 | 9760 ft | 296 kts | 98° |
| 2026-04-29 16:31 | 48.03555 | 12.58619 | 9361 ft | 284 kts | 97° |
| 2026-04-29 16:31 | 48.03254 | 12.61438 | 8993 ft | 266 kts | 97° |
| 2026-04-29 16:32 | 48.02973 | 12.64091 | 8654 ft | 252 kts | 97° |
| 2026-04-29 16:32 | 48.02704 | 12.66634 | 8324 ft | 246 kts | 97° |
| 2026-04-29 16:32 | 48.02435 | 12.69162 | 7996 ft | 246 kts | 97° |
| 2026-04-29 16:32 | 48.02165 | 12.71677 | 7672 ft | 244 kts | 97° |
| 2026-04-29 16:33 | 48.01628 | 12.76626 | 7029 ft | 240 kts | 97° |
| 2026-04-29 16:33 | 48.01362 | 12.79106 | 6707 ft | 237 kts | 97° |
| 2026-04-29 16:33 | 48.01101 | 12.81522 | 6390 ft | 232 kts | 97° |
| 2026-04-29 16:34 | 48.00848 | 12.83846 | 6077 ft | 230 kts | 97° |
| 2026-04-29 16:34 | 48.00519 | 12.86192 | 5760 ft | 232 kts | 108° |
| 2026-04-29 16:34 | 47.99589 | 12.88154 | 5444 ft | 235 kts | 137° |
| 2026-04-29 16:34 | 47.98145 | 12.89278 | 5140 ft | 237 kts | 164° |
| 2026-04-29 16:35 | 47.96526 | 12.89794 | 4845 ft | 238 kts | 163° |
| 2026-04-29 16:35 | 47.94966 | 12.90516 | 4615 ft | 234 kts | 158° |
| 2026-04-29 16:35 | 47.93448 | 12.91411 | 4308 ft | 234 kts | 154° |
| 2026-04-29 16:35 | 47.91959 | 12.92397 | 3977 ft | 234 kts | 154° |
| 2026-04-29 16:36 | 47.90454 | 12.93339 | 3671 ft | 234 kts | 154° |
| 2026-04-29 16:36 | 47.88999 | 12.94258 | 3362 ft | 215 kts | 154° |
| 2026-04-29 16:36 | 47.87752 | 12.95059 | 3114 ft | 182 kts | 153° |
| 2026-04-29 16:36 | 47.86679 | 12.95730 | 2869 ft | 150 kts | 152° |
| 2026-04-29 16:37 | 47.85791 | 12.96303 | 2652 ft | 129 kts | 150° |
| 2026-04-29 16:37 | 47.84996 | 12.96808 | 2450 ft | 119 kts | 151° |
| 2026-04-29 16:37 | 47.84252 | 12.97270 | 2271 ft | 112 kts | 150° |
| 2026-04-29 16:37 | 47.83777 | 12.97569 | 2137 ft | 119 kts | 152° |
| 2026-04-29 16:38 | 47.82742 | 12.98227 | 1937 ft | 120 kts | 152° |
| 2026-04-29 16:38 | 47.81978 | 12.98719 | 1822 ft | 120 kts | 150° |
| 2026-04-29 16:38 | 47.81212 | 12.99223 | 1673 ft | 124 kts | 152° |
| 2026-04-29 16:38 | 47.80406 | 12.99691 | 1469 ft | 120 kts | 153° |
| 2026-04-29 16:39 | 47.79706 | 13.00147 | 1422 ft | 100 kts | 149° |
| 2026-04-29 16:39 | 47.79129 | 13.00525 | 1413 ft | 81 kts | 158° |
| 2026-04-29 16:39 | 47.78733 | 13.00772 | 1415 ft | 33 kts | 156° |
| 2026-04-29 16:39 | 47.78559 | 13.00797 | 1420 ft | 14 kts | 217° |
| 2026-04-29 16:40 | 47.78530 | 13.00694 | 1416 ft | 12 kts | 271° |
| 2026-04-29 16:40 | 47.78587 | 13.00599 | 1414 ft | 14 kts | 338° |
| 2026-04-29 16:40 | 47.78688 | 13.00536 | 1416 ft | 17 kts | 337° |
| 2026-04-29 16:40 | 47.78803 | 13.00463 | 1415 ft | 19 kts | 336° |
| 2026-04-29 16:41 | 47.78931 | 13.00381 | 1418 ft | 21 kts | 335° |
| 2026-04-29 16:41 | 47.79071 | 13.00294 | 1418 ft | 23 kts | 338° |
| 2026-04-29 16:41 | 47.79220 | 13.00199 | 1417 ft | 24 kts | 337° |
| 2026-04-29 16:41 | 47.79374 | 13.00102 | 1414 ft | 24 kts | 336° |
| 2026-04-29 16:42 | 47.79533 | 13.00000 | 1418 ft | 25 kts | 338° |
| 2026-04-29 16:42 | 47.79690 | 12.99905 | 1414 ft | 18 kts | 338° |
| 2026-04-29 16:42 | 47.79771 | 12.99816 | 1418 ft | 16 kts | 275° |
| 2026-04-29 16:42 | 47.79743 | 12.99699 | 1416 ft | 7 kts | 247° |
| 2026-04-29 16:43 | 47.79717 | 12.99641 | 1414 ft | 7 kts | 249° |
| 2026-04-29 16:43 | 47.79720 | 12.99621 | 1416 ft | 0 kts | 303° |